Time,TemperatureF,DewpointF,PressureIn,WindDirection,WindDirectionDegrees,WindSpeedMPH,WindSpeedGustMPH,Humidity,HourlyPrecipIn,Conditions,Clouds,dailyrainin,SoftwareType,DateUTC
2013-03-11 00:29:00,44.3,44.3,30.24,NE,35,0.0,1.0,100,0.00,,---,0.00,VWS V13.01,2013-03-11 07:29:00,
2013-03-11 00:59:00,43.5,43.5,30.24,NE,35,0.0,0.0,100,0.00,,---,0.00,VWS V13.01,2013-03-11 07:59:00,
2013-03-11 01:29:00,42.8,42.8,30.24,NE,35,0.0,1.0,100,0.00,,---,0.00,VWS V13.01,2013-03-11 08:29:00,
2013-03-11 01:59:00,42.3,42.3,30.24,NE,35,0.0,0.0,100,0.00,,---,0.00,VWS V13.01,2013-03-11 08:59:00,
2013-03-11 02:29:00,41.6,41.6,30.23,NE,35,0.0,1.0,100,0.00,,---,0.00,VWS V13.01,2013-03-11 09:29:00,
2013-03-11 02:59:00,41.2,41.2,30.23,NE,35,0.0,0.0,100,0.00,,---,0.00,VWS V13.01,2013-03-11 09:59:00,
2013-03-11 03:29:00,40.9,40.9,30.22,NE,35,0.0,0.0,100,0.00,,---,0.00,VWS V13.01,2013-03-11 10:29:00,
2013-03-11 03:59:00,40.5,40.5,30.21,NE,35,0.0,0.0,100,0.00,,---,0.00,VWS V13.01,2013-03-11 10:59:00,
2013-03-11 04:29:00,40.9,40.9,30.21,NE,35,0.0,0.0,100,0.00,,---,0.00,VWS V13.01,2013-03-11 11:29:00,
2013-03-11 04:59:00,40.1,40.1,30.21,NE,35,0.0,0.0,100,0.00,,---,0.00,VWS V13.01,2013-03-11 11:59:00,
2013-03-11 05:29:00,39.6,39.6,30.22,NE,35,0.0,0.0,100,0.00,,---,0.00,VWS V13.01,2013-03-11 12:29:00,
2013-03-11 05:59:00,39.3,39.3,30.22,NE,35,0.0,0.0,100,0.00,,---,0.00,VWS V13.01,2013-03-11 12:59:00,
2013-03-11 06:29:00,38.9,38.9,30.22,NE,35,0.0,0.0,100,0.00,,---,0.00,VWS V13.01,2013-03-11 13:29:00,
2013-03-11 06:59:00,39.5,39.5,30.22,NE,35,0.0,0.0,100,0.00,,---,0.00,VWS V13.01,2013-03-11 13:59:00,
2013-03-11 07:29:00,39.1,39.1,30.23,NE,35,0.0,0.0,100,0.00,,---,0.00,VWS V13.01,2013-03-11 14:29:00,
2013-03-11 07:59:00,39.2,39.2,30.23,NE,35,0.0,0.0,100,0.00,,---,0.00,VWS V13.01,2013-03-11 14:59:00,
2013-03-11 08:29:00,39.8,39.8,30.23,NE,35,0.0,0.0,100,0.00,,---,0.00,VWS V13.01,2013-03-11 15:29:00,
2013-03-11 09:00:00,43.2,43.2,30.23,NE,35,0.0,0.0,100,0.00,,---,0.00,VWS V13.01,2013-03-11 16:00:00,
2013-03-11 09:29:00,48.0,48.0,30.22,NE,35,0.0,1.0,100,0.00,,---,0.00,VWS V13.01,2013-03-11 16:29:00,
2013-03-11 09:59:00,51.6,51.6,30.21,NE,35,0.0,2.0,100,0.00,,---,0.00,VWS V13.01,2013-03-11 16:59:00,
2013-03-11 10:29:00,55.1,18.0,30.20,NE,45,0.0,2.0,23,0.00,,---,0.00,VWS V13.01,2013-03-11 17:29:00,
2013-03-11 11:00:00,58.0,0.0,30.20,SSW,205,3.0,6.0,0,0.00,,---,0.00,VWS V13.01,2013-03-11 18:00:00,
2013-03-11 11:29:00,58.9,0.0,30.20,South,186,3.0,6.0,0,0.00,,---,0.00,VWS V13.01,2013-03-11 18:29:00,
2013-03-11 12:29:00,59.2,-16.1,30.19,South,179,2.0,7.0,4,0.00,,---,0.00,VWS V13.01,2013-03-11 19:29:00,
2013-03-11 12:59:00,61.6,0.0,30.17,SW,217,3.0,6.0,0,0.00,,---,0.00,VWS V13.01,2013-03-11 19:59:00,
2013-03-11 13:29:00,64.8,64.8,30.15,WSW,239,2.0,7.0,100,0.00,,---,0.00,VWS V13.01,2013-03-11 20:29:00,
2013-03-11 14:00:00,66.1,66.1,30.13,SSW,212,1.0,8.0,100,0.00,,---,0.00,VWS V13.01,2013-03-11 21:00:00,
2013-03-11 14:29:00,65.6,65.6,30.12,South,184,6.0,7.0,100,0.00,,---,0.00,VWS V13.01,2013-03-11 21:29:00,
2013-03-11 14:59:00,65.5,65.5,30.11,South,191,2.0,11.0,100,0.00,,---,0.00,VWS V13.01,2013-03-11 21:59:00,
2013-03-11 15:29:00,66.4,66.4,30.11,South,182,5.0,11.0,100,0.00,,---,0.00,VWS V13.01,2013-03-11 22:29:00,
2013-03-11 15:59:00,65.2,65.2,30.11,SSW,200,2.0,10.0,100,0.00,,---,0.00,VWS V13.01,2013-03-11 22:59:00,
2013-03-11 16:29:00,64.2,64.2,30.10,SSW,202,3.0,8.0,100,0.00,,---,0.00,VWS V13.01,2013-03-11 23:29:00,
2013-03-11 16:59:00,62.0,0.0,30.10,SSW,212,1.0,7.0,0,0.00,,---,0.00,VWS V13.01,2013-03-11 23:59:00,
2013-03-11 17:29:00,61.2,-20.3,30.09,SW,234,2.0,6.0,3,0.00,,---,0.00,VWS V13.01,2013-03-12 00:29:00,
2013-03-11 17:59:00,62.6,0.0,30.09,SW,223,0.0,3.0,0,0.00,,---,0.00,VWS V13.01,2013-03-12 00:59:00,
2013-03-11 18:29:00,60.7,3.8,30.09,SW,222,0.0,4.0,10,0.00,,---,0.00,VWS V13.01,2013-03-12 01:29:00,
2013-03-11 18:59:00,57.2,27.6,30.09,SW,222,1.0,3.0,32,0.00,,---,0.00,VWS V13.01,2013-03-12 01:59:00,
2013-03-11 19:29:00,53.3,41.8,30.10,SW,216,0.0,3.0,65,0.00,,---,0.00,VWS V13.01,2013-03-12 02:29:00,
2013-03-11 19:59:00,51.4,46.4,30.10,SW,216,0.0,1.0,83,0.00,,---,0.00,VWS V13.01,2013-03-12 02:59:00,
2013-03-11 20:29:00,49.9,46.5,30.11,SW,216,0.0,0.0,88,0.00,,---,0.00,VWS V13.01,2013-03-12 03:29:00,
2013-03-11 20:59:00,48.9,47.8,30.11,SW,216,0.0,0.0,96,0.00,,---,0.00,VWS V13.01,2013-03-12 03:59:00,
2013-03-11 21:29:00,48.2,48.2,30.11,SW,216,0.0,0.0,100,0.00,,---,0.00,VWS V13.01,2013-03-12 04:29:00,
2013-03-11 21:59:00,47.0,47.0,30.11,SW,216,0.0,0.0,100,0.00,,---,0.00,VWS V13.01,2013-03-12 04:59:00,
2013-03-11 22:29:00,46.2,46.2,30.10,SW,216,0.0,2.0,100,0.00,,---,0.00,VWS V13.01,2013-03-12 05:29:00,
2013-03-11 22:59:00,45.5,45.5,30.10,SW,216,0.0,0.0,100,0.00,,---,0.00,VWS V13.01,2013-03-12 05:59:00,
2013-03-11 23:29:00,44.9,44.9,30.10,SW,216,0.0,0.0,100,0.00,,---,0.00,VWS V13.01,2013-03-12 06:29:00,
2013-03-11 23:59:00,44.5,44.5,30.11,SW,216,0.0,2.0,100,0.00,,---,0.00,VWS V13.01,2013-03-12 06:59:00,